sensor_id;sensor_type;location;lat;lon;timestamp;P1;durP1;ratioP1;P2;durP2;ratioP2
9860;SDS011;4969;52.304;4.968;2023-03-01T00:00:05;16.80;;;14.63;;
9860;SDS011;4969;52.304;4.968;2023-03-01T00:02:34;17.90;;;14.53;;
9860;SDS011;4969;52.304;4.968;2023-03-01T00:05:01;13.93;;;12.73;;
9860;SDS011;4969;52.304;4.968;2023-03-01T00:07:28;13.40;;;12.10;;
9860;SDS011;4969;52.304;4.968;2023-03-01T00:09:54;13.40;;;12.07;;
9860;SDS011;4969;52.304;4.968;2023-03-01T00:12:21;14.23;;;12.33;;
9860;SDS011;4969;52.304;4.968;2023-03-01T00:14:47;14.57;;;13.20;;
9860;SDS011;4969;52.304;4.968;2023-03-01T00:17:14;14.73;;;13.30;;
9860;SDS011;4969;52.304;4.968;2023-03-01T00:19:43;14.57;;;13.07;;
9860;SDS011;4969;52.304;4.968;2023-03-01T00:22:09;15.00;;;13.50;;
9860;SDS011;4969;52.304;4.968;2023-03-01T00:24:36;15.60;;;14.10;;
9860;SDS011;4969;52.304;4.968;2023-03-01T00:27:03;15.03;;;13.57;;
9860;SDS011;4969;52.304;4.968;2023-03-01T00:29:29;14.57;;;13.17;;
9860;SDS011;4969;52.304;4.968;2023-03-01T00:31:56;13.23;;;11.93;;
9860;SDS011;4969;52.304;4.968;2023-03-01T00:34:22;12.63;;;11.33;;
9860;SDS011;4969;52.304;4.968;2023-03-01T00:36:50;12.50;;;11.30;;
9860;SDS011;4969;52.304;4.968;2023-03-01T00:39:17;14.77;;;12.97;;
9860;SDS011;4969;52.304;4.968;2023-03-01T00:41:43;13.57;;;12.20;;
9860;SDS011;4969;52.304;4.968;2023-03-01T00:44:10;15.40;;;13.83;;
9860;SDS011;4969;52.304;4.968;2023-03-01T00:46:38;14.27;;;12.77;;
9860;SDS011;4969;52.304;4.968;2023-03-01T00:49:04;14.33;;;13.00;;
9860;SDS011;4969;52.304;4.968;2023-03-01T00:51:31;14.83;;;13.47;;
9860;SDS011;4969;52.304;4.968;2023-03-01T00:54:00;15.47;;;13.87;;
9860;SDS011;4969;52.304;4.968;2023-03-01T00:56:27;15.50;;;13.87;;
9860;SDS011;4969;52.304;4.968;2023-03-01T00:58:54;14.43;;;13.13;;
9860;SDS011;4969;52.304;4.968;2023-03-01T01:01:21;15.00;;;13.40;;
9860;SDS011;4969;52.304;4.968;2023-03-01T01:03:53;14.30;;;12.97;;
9860;SDS011;4969;52.304;4.968;2023-03-01T01:06:21;14.87;;;13.50;;
9860;SDS011;4969;52.304;4.968;2023-03-01T01:08:49;13.73;;;12.43;;
9860;SDS011;4969;52.304;4.968;2023-03-01T01:11:18;14.43;;;13.07;;
9860;SDS011;4969;52.304;4.968;2023-03-01T01:13:46;14.93;;;13.47;;
9860;SDS011;4969;52.304;4.968;2023-03-01T01:16:13;14.57;;;13.07;;
9860;SDS011;4969;52.304;4.968;2023-03-01T01:18:41;14.60;;;13.07;;
9860;SDS011;4969;52.304;4.968;2023-03-01T01:21:09;15.50;;;14.10;;
9860;SDS011;4969;52.304;4.968;2023-03-01T01:23:37;15.33;;;14.00;;
9860;SDS011;4969;52.304;4.968;2023-03-01T01:26:05;14.93;;;13.43;;
9860;SDS011;4969;52.304;4.968;2023-03-01T01:28:34;15.27;;;13.73;;
9860;SDS011;4969;52.304;4.968;2023-03-01T01:31:00;15.17;;;13.23;;
9860;SDS011;4969;52.304;4.968;2023-03-01T01:33:27;14.23;;;12.93;;
9860;SDS011;4969;52.304;4.968;2023-03-01T01:35:54;14.87;;;13.40;;
9860;SDS011;4969;52.304;4.968;2023-03-01T01:38:20;13.80;;;12.50;;
9860;SDS011;4969;52.304;4.968;2023-03-01T01:40:47;14.00;;;12.77;;
9860;SDS011;4969;52.304;4.968;2023-03-01T01:43:17;14.33;;;12.90;;
9860;SDS011;4969;52.304;4.968;2023-03-01T01:45:47;14.93;;;13.40;;
9860;SDS011;4969;52.304;4.968;2023-03-01T01:48:16;15.47;;;13.97;;
9860;SDS011;4969;52.304;4.968;2023-03-01T01:50:45;14.47;;;13.17;;
9860;SDS011;4969;52.304;4.968;2023-03-01T01:53:18;14.70;;;13.20;;
9860;SDS011;4969;52.304;4.968;2023-03-01T01:55:47;14.30;;;13.00;;
9860;SDS011;4969;52.304;4.968;2023-03-01T01:58:18;14.10;;;12.70;;
9860;SDS011;4969;52.304;4.968;2023-03-01T02:00:48;13.67;;;12.37;;
9860;SDS011;4969;52.304;4.968;2023-03-01T02:03:17;14.97;;;13.37;;
9860;SDS011;4969;52.304;4.968;2023-03-01T02:05:47;14.97;;;13.50;;
9860;SDS011;4969;52.304;4.968;2023-03-01T02:08:18;14.47;;;13.07;;
9860;SDS011;4969;52.304;4.968;2023-03-01T02:10:47;15.63;;;13.17;;
9860;SDS011;4969;52.304;4.968;2023-03-01T02:13:15;14.97;;;13.57;;
9860;SDS011;4969;52.304;4.968;2023-03-01T02:15:42;15.20;;;13.63;;
9860;SDS011;4969;52.304;4.968;2023-03-01T02:18:11;15.33;;;13.87;;
9860;SDS011;4969;52.304;4.968;2023-03-01T02:20:41;14.87;;;13.47;;
9860;SDS011;4969;52.304;4.968;2023-03-01T02:23:15;15.13;;;13.70;;
9860;SDS011;4969;52.304;4.968;2023-03-01T02:25:45;15.63;;;14.13;;
9860;SDS011;4969;52.304;4.968;2023-03-01T02:28:21;14.53;;;13.03;;
9860;SDS011;4969;52.304;4.968;2023-03-01T02:30:50;14.73;;;13.33;;
9860;SDS011;4969;52.304;4.968;2023-03-01T02:33:36;14.90;;;13.60;;
9860;SDS011;4969;52.304;4.968;2023-03-01T02:36:05;13.63;;;12.33;;
9860;SDS011;4969;52.304;4.968;2023-03-01T02:38:34;14.00;;;12.70;;
9860;SDS011;4969;52.304;4.968;2023-03-01T02:41:01;13.97;;;12.67;;
9860;SDS011;4969;52.304;4.968;2023-03-01T02:43:32;14.57;;;13.20;;
9860;SDS011;4969;52.304;4.968;2023-03-01T02:46:01;13.90;;;12.37;;
9860;SDS011;4969;52.304;4.968;2023-03-01T02:48:37;14.60;;;13.20;;
9860;SDS011;4969;52.304;4.968;2023-03-01T02:51:08;15.17;;;13.73;;
9860;SDS011;4969;52.304;4.968;2023-03-01T02:53:45;14.00;;;12.60;;
9860;SDS011;4969;52.304;4.968;2023-03-01T02:56:19;13.57;;;12.27;;
9860;SDS011;4969;52.304;4.968;2023-03-01T02:58:47;14.10;;;12.60;;
9860;SDS011;4969;52.304;4.968;2023-03-01T03:01:16;13.37;;;12.17;;
9860;SDS011;4969;52.304;4.968;2023-03-01T03:03:43;14.30;;;12.60;;
9860;SDS011;4969;52.304;4.968;2023-03-01T03:06:10;14.10;;;12.70;;
9860;SDS011;4969;52.304;4.968;2023-03-01T03:08:36;14.90;;;13.40;;
9860;SDS011;4969;52.304;4.968;2023-03-01T03:11:03;13.27;;;12.13;;
9860;SDS011;4969;52.304;4.968;2023-03-01T03:13:29;14.47;;;13.03;;
9860;SDS011;4969;52.304;4.968;2023-03-01T03:15:58;14.70;;;13.30;;
9860;SDS011;4969;52.304;4.968;2023-03-01T03:18:25;13.63;;;12.37;;
9860;SDS011;4969;52.304;4.968;2023-03-01T03:20:52;14.67;;;13.17;;
9860;SDS011;4969;52.304;4.968;2023-03-01T03:23:19;13.73;;;12.43;;
9860;SDS011;4969;52.304;4.968;2023-03-01T03:25:47;13.87;;;12.57;;
9860;SDS011;4969;52.304;4.968;2023-03-01T03:28:14;13.00;;;11.80;;
9860;SDS011;4969;52.304;4.968;2023-03-01T03:30:41;13.93;;;12.60;;
9860;SDS011;4969;52.304;4.968;2023-03-01T03:33:10;14.40;;;13.00;;
9860;SDS011;4969;52.304;4.968;2023-03-01T03:35:39;13.70;;;12.50;;
9860;SDS011;4969;52.304;4.968;2023-03-01T03:38:08;12.00;;;11.00;;
9860;SDS011;4969;52.304;4.968;2023-03-01T03:40:41;12.20;;;11.10;;
9860;SDS011;4969;52.304;4.968;2023-03-01T03:43:09;13.17;;;12.07;;
9860;SDS011;4969;52.304;4.968;2023-03-01T03:45:38;12.53;;;11.33;;
9860;SDS011;4969;52.304;4.968;2023-03-01T03:48:05;12.20;;;10.97;;
9860;SDS011;4969;52.304;4.968;2023-03-01T03:50:35;11.57;;;10.47;;
9860;SDS011;4969;52.304;4.968;2023-03-01T03:53:02;12.43;;;11.33;;
9860;SDS011;4969;52.304;4.968;2023-03-01T03:55:30;13.30;;;12.03;;
9860;SDS011;4969;52.304;4.968;2023-03-01T03:57:58;13.97;;;12.57;;
9860;SDS011;4969;52.304;4.968;2023-03-01T04:00:31;13.67;;;12.37;;
9860;SDS011;4969;52.304;4.968;2023-03-01T04:02:59;12.20;;;11.10;;
9860;SDS011;4969;52.304;4.968;2023-03-01T04:05:26;13.30;;;12.00;;
9860;SDS011;4969;52.304;4.968;2023-03-01T04:07:54;12.20;;;11.03;;
9860;SDS011;4969;52.304;4.968;2023-03-01T04:10:27;12.40;;;11.20;;
9860;SDS011;4969;52.304;4.968;2023-03-01T04:12:54;12.27;;;11.17;;
9860;SDS011;4969;52.304;4.968;2023-03-01T04:15:22;13.40;;;12.00;;
9860;SDS011;4969;52.304;4.968;2023-03-01T04:17:49;13.50;;;12.20;;
9860;SDS011;4969;52.304;4.968;2023-03-01T04:20:18;13.90;;;12.40;;
9860;SDS011;4969;52.304;4.968;2023-03-01T04:22:50;14.17;;;12.97;;
9860;SDS011;4969;52.304;4.968;2023-03-01T04:25:18;14.80;;;13.30;;
9860;SDS011;4969;52.304;4.968;2023-03-01T04:27:45;14.07;;;12.83;;
9860;SDS011;4969;52.304;4.968;2023-03-01T04:30:11;11.87;;;10.87;;
9860;SDS011;4969;52.304;4.968;2023-03-01T04:32:38;12.10;;;11.00;;
9860;SDS011;4969;52.304;4.968;2023-03-01T04:35:05;11.77;;;10.67;;
9860;SDS011;4969;52.304;4.968;2023-03-01T04:37:32;12.57;;;11.40;;
9860;SDS011;4969;52.304;4.968;2023-03-01T04:39:59;12.07;;;10.97;;
9860;SDS011;4969;52.304;4.968;2023-03-01T04:42:31;11.40;;;10.30;;
9860;SDS011;4969;52.304;4.968;2023-03-01T04:44:57;12.03;;;11.03;;
9860;SDS011;4969;52.304;4.968;2023-03-01T04:47:24;12.50;;;11.40;;
9860;SDS011;4969;52.304;4.968;2023-03-01T04:49:50;12.70;;;11.50;;
9860;SDS011;4969;52.304;4.968;2023-03-01T04:52:17;17.03;;;15.40;;
9860;SDS011;4969;52.304;4.968;2023-03-01T04:54:44;13.43;;;12.13;;
9860;SDS011;4969;52.304;4.968;2023-03-01T04:57:10;14.20;;;12.90;;
9860;SDS011;4969;52.304;4.968;2023-03-01T04:59:38;13.77;;;12.57;;
9860;SDS011;4969;52.304;4.968;2023-03-01T05:02:05;15.17;;;13.73;;
9860;SDS011;4969;52.304;4.968;2023-03-01T05:04:31;12.53;;;11.33;;
9860;SDS011;4969;52.304;4.968;2023-03-01T05:06:58;12.67;;;11.53;;
9860;SDS011;4969;52.304;4.968;2023-03-01T05:09:24;12.87;;;11.77;;
9860;SDS011;4969;52.304;4.968;2023-03-01T05:11:51;14.37;;;12.87;;
9860;SDS011;4969;52.304;4.968;2023-03-01T05:14:17;13.27;;;12.07;;
9860;SDS011;4969;52.304;4.968;2023-03-01T05:16:45;12.07;;;11.07;;
9860;SDS011;4969;52.304;4.968;2023-03-01T05:19:12;13.00;;;11.80;;
9860;SDS011;4969;52.304;4.968;2023-03-01T05:21:40;12.37;;;11.17;;
9860;SDS011;4969;52.304;4.968;2023-03-01T05:24:21;15.07;;;13.57;;
9860;SDS011;4969;52.304;4.968;2023-03-01T05:26:47;15.30;;;13.90;;
9860;SDS011;4969;52.304;4.968;2023-03-01T05:29:14;14.03;;;12.70;;
9860;SDS011;4969;52.304;4.968;2023-03-01T05:31:40;14.37;;;13.00;;
9860;SDS011;4969;52.304;4.968;2023-03-01T05:34:08;14.17;;;12.93;;
9860;SDS011;4969;52.304;4.968;2023-03-01T05:36:37;16.30;;;14.83;;
9860;SDS011;4969;52.304;4.968;2023-03-01T05:39:04;17.00;;;15.40;;
9860;SDS011;4969;52.304;4.968;2023-03-01T05:41:30;16.93;;;15.33;;
9860;SDS011;4969;52.304;4.968;2023-03-01T05:43:57;17.63;;;15.93;;
9860;SDS011;4969;52.304;4.968;2023-03-01T05:46:23;19.07;;;17.30;;
9860;SDS011;4969;52.304;4.968;2023-03-01T05:48:50;18.00;;;16.30;;
9860;SDS011;4969;52.304;4.968;2023-03-01T05:51:18;19.23;;;17.37;;
9860;SDS011;4969;52.304;4.968;2023-03-01T05:53:44;18.13;;;16.43;;
9860;SDS011;4969;52.304;4.968;2023-03-01T05:56:11;19.57;;;17.63;;
9860;SDS011;4969;52.304;4.968;2023-03-01T05:58:37;18.87;;;16.97;;
9860;SDS011;4969;52.304;4.968;2023-03-01T06:01:04;18.97;;;17.27;;
9860;SDS011;4969;52.304;4.968;2023-03-01T06:03:31;19.97;;;18.00;;
9860;SDS011;4969;52.304;4.968;2023-03-01T06:05:57;20.07;;;18.20;;
9860;SDS011;4969;52.304;4.968;2023-03-01T06:08:25;20.70;;;18.60;;
9860;SDS011;4969;52.304;4.968;2023-03-01T06:10:52;21.33;;;19.37;;
9860;SDS011;4969;52.304;4.968;2023-03-01T06:13:19;20.47;;;18.43;;
9860;SDS011;4969;52.304;4.968;2023-03-01T06:15:46;20.07;;;18.17;;
9860;SDS011;4969;52.304;4.968;2023-03-01T06:18:12;23.23;;;20.83;;
9860;SDS011;4969;52.304;4.968;2023-03-01T06:20:39;21.87;;;19.87;;
9860;SDS011;4969;52.304;4.968;2023-03-01T06:23:05;23.27;;;21.07;;
9860;SDS011;4969;52.304;4.968;2023-03-01T06:25:33;23.53;;;21.03;;
9860;SDS011;4969;52.304;4.968;2023-03-01T06:28:00;23.17;;;20.33;;
9860;SDS011;4969;52.304;4.968;2023-03-01T06:30:26;22.17;;;19.87;;
9860;SDS011;4969;52.304;4.968;2023-03-01T06:32:53;22.83;;;20.47;;
9860;SDS011;4969;52.304;4.968;2023-03-01T06:35:26;21.43;;;19.13;;
9860;SDS011;4969;52.304;4.968;2023-03-01T06:37:54;22.07;;;19.67;;
9860;SDS011;4969;52.304;4.968;2023-03-01T06:40:22;22.13;;;19.80;;
9860;SDS011;4969;52.304;4.968;2023-03-01T06:42:51;20.30;;;18.20;;
9860;SDS011;4969;52.304;4.968;2023-03-01T06:45:19;21.67;;;19.47;;
9860;SDS011;4969;52.304;4.968;2023-03-01T06:47:46;22.37;;;20.07;;
9860;SDS011;4969;52.304;4.968;2023-03-01T06:50:14;22.70;;;19.07;;
9860;SDS011;4969;52.304;4.968;2023-03-01T06:52:40;21.00;;;18.87;;
9860;SDS011;4969;52.304;4.968;2023-03-01T06:55:09;19.83;;;18.00;;
9860;SDS011;4969;52.304;4.968;2023-03-01T06:57:35;20.43;;;18.43;;
9860;SDS011;4969;52.304;4.968;2023-03-01T07:00:03;20.27;;;18.10;;
9860;SDS011;4969;52.304;4.968;2023-03-01T07:02:32;21.27;;;18.13;;
9860;SDS011;4969;52.304;4.968;2023-03-01T07:04:58;20.33;;;18.23;;
9860;SDS011;4969;52.304;4.968;2023-03-01T07:07:25;21.27;;;18.53;;
9860;SDS011;4969;52.304;4.968;2023-03-01T07:09:51;20.57;;;18.60;;
9860;SDS011;4969;52.304;4.968;2023-03-01T07:12:19;19.70;;;17.60;;
9860;SDS011;4969;52.304;4.968;2023-03-01T07:14:45;21.33;;;18.20;;
9860;SDS011;4969;52.304;4.968;2023-03-01T07:17:13;20.00;;;17.90;;
9860;SDS011;4969;52.304;4.968;2023-03-01T07:19:40;19.43;;;17.53;;
9860;SDS011;4969;52.304;4.968;2023-03-01T07:22:06;20.13;;;18.07;;
9860;SDS011;4969;52.304;4.968;2023-03-01T07:24:34;19.93;;;18.13;;
9860;SDS011;4969;52.304;4.968;2023-03-01T07:27:00;19.13;;;17.37;;
9860;SDS011;4969;52.304;4.968;2023-03-01T07:29:27;20.13;;;18.17;;
9860;SDS011;4969;52.304;4.968;2023-03-01T07:31:54;21.47;;;19.27;;
9860;SDS011;4969;52.304;4.968;2023-03-01T07:34:22;21.13;;;18.93;;
9860;SDS011;4969;52.304;4.968;2023-03-01T07:36:49;21.97;;;19.73;;
9860;SDS011;4969;52.304;4.968;2023-03-01T07:39:15;24.93;;;22.23;;
9860;SDS011;4969;52.304;4.968;2023-03-01T07:41:42;23.10;;;20.70;;
9860;SDS011;4969;52.304;4.968;2023-03-01T07:44:08;23.63;;;21.23;;
9860;SDS011;4969;52.304;4.968;2023-03-01T07:46:35;23.67;;;21.17;;
9860;SDS011;4969;52.304;4.968;2023-03-01T07:49:02;31.27;;;22.23;;
9860;SDS011;4969;52.304;4.968;2023-03-01T07:51:30;30.00;;;22.17;;
9860;SDS011;4969;52.304;4.968;2023-03-01T07:53:57;24.83;;;22.20;;
9860;SDS011;4969;52.304;4.968;2023-03-01T07:56:24;28.47;;;21.70;;
9860;SDS011;4969;52.304;4.968;2023-03-01T07:58:50;25.23;;;22.63;;
9860;SDS011;4969;52.304;4.968;2023-03-01T08:01:18;22.60;;;20.30;;
9860;SDS011;4969;52.304;4.968;2023-03-01T08:03:46;22.73;;;20.33;;
9860;SDS011;4969;52.304;4.968;2023-03-01T08:06:14;24.33;;;21.97;;
9860;SDS011;4969;52.304;4.968;2023-03-01T08:08:42;25.93;;;23.07;;
9860;SDS011;4969;52.304;4.968;2023-03-01T08:11:10;25.33;;;22.77;;
9860;SDS011;4969;52.304;4.968;2023-03-01T08:13:38;27.77;;;24.77;;
9860;SDS011;4969;52.304;4.968;2023-03-01T08:16:05;28.10;;;25.20;;
9860;SDS011;4969;52.304;4.968;2023-03-01T08:18:33;27.47;;;24.63;;
9860;SDS011;4969;52.304;4.968;2023-03-01T08:21:04;29.93;;;26.27;;
9860;SDS011;4969;52.304;4.968;2023-03-01T08:23:31;31.57;;;28.27;;
9860;SDS011;4969;52.304;4.968;2023-03-01T08:26:06;31.73;;;28.43;;
9860;SDS011;4969;52.304;4.968;2023-03-01T08:28:35;30.17;;;26.80;;
9860;SDS011;4969;52.304;4.968;2023-03-01T08:31:02;29.97;;;26.77;;
9860;SDS011;4969;52.304;4.968;2023-03-01T08:33:29;29.73;;;26.57;;
9860;SDS011;4969;52.304;4.968;2023-03-01T08:36:03;30.67;;;27.37;;
9860;SDS011;4969;52.304;4.968;2023-03-01T08:38:31;31.13;;;27.87;;
9860;SDS011;4969;52.304;4.968;2023-03-01T08:40:59;31.17;;;27.87;;
9860;SDS011;4969;52.304;4.968;2023-03-01T08:43:27;30.37;;;27.30;;
9860;SDS011;4969;52.304;4.968;2023-03-01T08:45:54;33.05;;;29.85;;
9860;SDS011;4969;52.304;4.968;2023-03-01T08:48:20;30.03;;;26.97;;
9860;SDS011;4969;52.304;4.968;2023-03-01T08:50:47;31.43;;;28.23;;
9860;SDS011;4969;52.304;4.968;2023-03-01T08:53:13;31.43;;;28.07;;
9860;SDS011;4969;52.304;4.968;2023-03-01T08:55:40;30.83;;;27.83;;
9860;SDS011;4969;52.304;4.968;2023-03-01T08:58:06;29.63;;;26.63;;
9860;SDS011;4969;52.304;4.968;2023-03-01T09:00:34;30.63;;;26.40;;
9860;SDS011;4969;52.304;4.968;2023-03-01T09:03:01;27.20;;;24.60;;
9860;SDS011;4969;52.304;4.968;2023-03-01T09:05:27;27.43;;;24.70;;
9860;SDS011;4969;52.304;4.968;2023-03-01T09:07:56;25.50;;;23.07;;
9860;SDS011;4969;52.304;4.968;2023-03-01T09:10:23;28.27;;;25.43;;
9860;SDS011;4969;52.304;4.968;2023-03-01T09:12:50;25.87;;;23.27;;
9860;SDS011;4969;52.304;4.968;2023-03-01T09:15:17;27.10;;;24.00;;
9860;SDS011;4969;52.304;4.968;2023-03-01T09:17:45;28.00;;;25.17;;
9860;SDS011;4969;52.304;4.968;2023-03-01T09:20:12;26.77;;;24.10;;
9860;SDS011;4969;52.304;4.968;2023-03-01T09:22:38;25.90;;;23.27;;
9860;SDS011;4969;52.304;4.968;2023-03-01T09:25:05;25.33;;;22.93;;
9860;SDS011;4969;52.304;4.968;2023-03-01T09:27:32;23.93;;;21.63;;
9860;SDS011;4969;52.304;4.968;2023-03-01T09:29:59;21.83;;;19.73;;
9860;SDS011;4969;52.304;4.968;2023-03-01T09:32:25;21.27;;;19.20;;
9860;SDS011;4969;52.304;4.968;2023-03-01T09:34:53;17.37;;;15.70;;
9860;SDS011;4969;52.304;4.968;2023-03-01T09:37:32;13.60;;;12.20;;
9860;SDS011;4969;52.304;4.968;2023-03-01T09:40:00;16.37;;;14.87;;
9860;SDS011;4969;52.304;4.968;2023-03-01T09:42:28;16.70;;;14.90;;
9860;SDS011;4969;52.304;4.968;2023-03-01T09:44:59;16.50;;;15.10;;
9860;SDS011;4969;52.304;4.968;2023-03-01T09:47:30;14.57;;;13.27;;
9860;SDS011;4969;52.304;4.968;2023-03-01T09:50:02;15.20;;;13.90;;
9860;SDS011;4969;52.304;4.968;2023-03-01T09:52:33;17.13;;;15.63;;
9860;SDS011;4969;52.304;4.968;2023-03-01T09:55:08;16.17;;;14.73;;
9860;SDS011;4969;52.304;4.968;2023-03-01T09:57:38;18.17;;;16.57;;
9860;SDS011;4969;52.304;4.968;2023-03-01T10:00:16;18.60;;;16.90;;
9860;SDS011;4969;52.304;4.968;2023-03-01T10:02:48;19.13;;;17.43;;
9860;SDS011;4969;52.304;4.968;2023-03-01T10:05:27;21.20;;;16.80;;
9860;SDS011;4969;52.304;4.968;2023-03-01T10:08:02;19.17;;;17.37;;
9860;SDS011;4969;52.304;4.968;2023-03-01T10:10:44;18.80;;;17.10;;
9860;SDS011;4969;52.304;4.968;2023-03-01T10:13:15;16.73;;;15.13;;
9860;SDS011;4969;52.304;4.968;2023-03-01T10:15:47;17.63;;;16.00;;
9860;SDS011;4969;52.304;4.968;2023-03-01T10:18:20;13.57;;;12.37;;
9860;SDS011;4969;52.304;4.968;2023-03-01T10:20:51;15.87;;;14.57;;
9860;SDS011;4969;52.304;4.968;2023-03-01T10:23:19;16.53;;;15.10;;
9860;SDS011;4969;52.304;4.968;2023-03-01T10:25:53;16.57;;;15.13;;
9860;SDS011;4969;52.304;4.968;2023-03-01T10:28:29;16.20;;;14.90;;
9860;SDS011;4969;52.304;4.968;2023-03-01T10:31:02;16.97;;;15.57;;
9860;SDS011;4969;52.304;4.968;2023-03-01T10:33:30;16.70;;;15.30;;
9860;SDS011;4969;52.304;4.968;2023-03-01T10:35:59;17.60;;;16.00;;
9860;SDS011;4969;52.304;4.968;2023-03-01T10:38:26;18.07;;;16.33;;
9860;SDS011;4969;52.304;4.968;2023-03-01T10:40:57;17.43;;;15.93;;
9860;SDS011;4969;52.304;4.968;2023-03-01T10:43:26;18.30;;;16.37;;
9860;SDS011;4969;52.304;4.968;2023-03-01T10:45:57;17.83;;;16.33;;
9860;SDS011;4969;52.304;4.968;2023-03-01T10:48:24;17.83;;;16.33;;
9860;SDS011;4969;52.304;4.968;2023-03-01T10:51:05;20.33;;;18.33;;
9860;SDS011;4969;52.304;4.968;2023-03-01T10:53:34;21.30;;;19.20;;
9860;SDS011;4969;52.304;4.968;2023-03-01T10:56:03;23.63;;;21.10;;
9860;SDS011;4969;52.304;4.968;2023-03-01T10:58:32;18.83;;;17.13;;
9860;SDS011;4969;52.304;4.968;2023-03-01T11:01:00;23.03;;;20.23;;
9860;SDS011;4969;52.304;4.968;2023-03-01T11:03:28;18.60;;;16.70;;
9860;SDS011;4969;52.304;4.968;2023-03-01T11:05:58;20.37;;;18.37;;
9860;SDS011;4969;52.304;4.968;2023-03-01T11:08:32;21.13;;;18.97;;
9860;SDS011;4969;52.304;4.968;2023-03-01T11:11:04;19.90;;;18.00;;
9860;SDS011;4969;52.304;4.968;2023-03-01T11:13:37;18.90;;;17.10;;
9860;SDS011;4969;52.304;4.968;2023-03-01T11:16:13;19.30;;;17.40;;
9860;SDS011;4969;52.304;4.968;2023-03-01T11:18:40;21.23;;;18.47;;
9860;SDS011;4969;52.304;4.968;2023-03-01T11:21:06;19.33;;;16.30;;
9860;SDS011;4969;52.304;4.968;2023-03-01T11:23:44;17.20;;;15.50;;
9860;SDS011;4969;52.304;4.968;2023-03-01T11:26:12;17.93;;;16.03;;
9860;SDS011;4969;52.304;4.968;2023-03-01T11:28:41;17.57;;;15.93;;
9860;SDS011;4969;52.304;4.968;2023-03-01T11:31:10;18.20;;;16.43;;
9860;SDS011;4969;52.304;4.968;2023-03-01T11:33:39;17.83;;;16.03;;
9860;SDS011;4969;52.304;4.968;2023-03-01T11:36:13;17.60;;;15.90;;
9860;SDS011;4969;52.304;4.968;2023-03-01T11:38:46;17.13;;;15.33;;
9860;SDS011;4969;52.304;4.968;2023-03-01T11:41:14;16.73;;;15.00;;
9860;SDS011;4969;52.304;4.968;2023-03-01T11:43:46;16.10;;;14.43;;
9860;SDS011;4969;52.304;4.968;2023-03-01T11:46:31;17.83;;;16.03;;
9860;SDS011;4969;52.304;4.968;2023-03-01T11:49:19;17.37;;;15.60;;
9860;SDS011;4969;52.304;4.968;2023-03-01T11:52:06;16.20;;;14.53;;
9860;SDS011;4969;52.304;4.968;2023-03-01T11:54:44;15.83;;;14.37;;
9860;SDS011;4969;52.304;4.968;2023-03-01T11:57:20;14.53;;;13.03;;
9860;SDS011;4969;52.304;4.968;2023-03-01T12:00:05;14.80;;;13.30;;
9860;SDS011;4969;52.304;4.968;2023-03-01T12:06:05;15.87;;;14.37;;
9860;SDS011;4969;52.304;4.968;2023-03-01T12:08:49;15.70;;;14.23;;
9860;SDS011;4969;52.304;4.968;2023-03-01T12:11:29;15.33;;;13.77;;
9860;SDS011;4969;52.304;4.968;2023-03-01T12:17:04;15.43;;;13.93;;
9860;SDS011;4969;52.304;4.968;2023-03-01T12:19:54;15.00;;;13.63;;
9860;SDS011;4969;52.304;4.968;2023-03-01T12:22:30;13.50;;;12.30;;
9860;SDS011;4969;52.304;4.968;2023-03-01T12:25:04;13.33;;;12.03;;
9860;SDS011;4969;52.304;4.968;2023-03-01T12:27:46;15.00;;;13.43;;
9860;SDS011;4969;52.304;4.968;2023-03-01T12:30:28;14.33;;;12.90;;
9860;SDS011;4969;52.304;4.968;2023-03-01T12:33:05;13.33;;;12.03;;
9860;SDS011;4969;52.304;4.968;2023-03-01T12:35:51;14.00;;;12.70;;
9860;SDS011;4969;52.304;4.968;2023-03-01T12:38:32;14.23;;;12.90;;
9860;SDS011;4969;52.304;4.968;2023-03-01T12:41:11;12.63;;;11.40;;
9860;SDS011;4969;52.304;4.968;2023-03-01T12:43:57;13.70;;;11.93;;
9860;SDS011;4969;52.304;4.968;2023-03-01T12:46:33;12.10;;;10.90;;
9860;SDS011;4969;52.304;4.968;2023-03-01T12:49:13;13.60;;;12.17;;
9860;SDS011;4969;52.304;4.968;2023-03-01T12:51:42;16.17;;;12.60;;
9860;SDS011;4969;52.304;4.968;2023-03-01T12:54:16;13.20;;;12.00;;
9860;SDS011;4969;52.304;4.968;2023-03-01T12:56:46;13.87;;;12.47;;
9860;SDS011;4969;52.304;4.968;2023-03-01T12:59:19;13.40;;;12.03;;
9860;SDS011;4969;52.304;4.968;2023-03-01T13:01:51;13.30;;;11.90;;
9860;SDS011;4969;52.304;4.968;2023-03-01T13:04:35;12.33;;;11.07;;
9860;SDS011;4969;52.304;4.968;2023-03-01T13:07:16;9.90;;;8.90;;
9860;SDS011;4969;52.304;4.968;2023-03-01T13:09:50;10.20;;;9.20;;
9860;SDS011;4969;52.304;4.968;2023-03-01T13:12:42;10.67;;;9.67;;
9860;SDS011;4969;52.304;4.968;2023-03-01T13:15:26;9.20;;;8.30;;
9860;SDS011;4969;52.304;4.968;2023-03-01T13:17:58;10.73;;;8.77;;
9860;SDS011;4969;52.304;4.968;2023-03-01T13:20:27;9.27;;;8.37;;
9860;SDS011;4969;52.304;4.968;2023-03-01T13:23:04;10.03;;;9.00;;
9860;SDS011;4969;52.304;4.968;2023-03-01T13:25:34;10.03;;;9.13;;
9860;SDS011;4969;52.304;4.968;2023-03-01T13:31:07;10.80;;;9.70;;
9860;SDS011;4969;52.304;4.968;2023-03-01T13:33:42;11.57;;;9.93;;
9860;SDS011;4969;52.304;4.968;2023-03-01T13:36:10;10.20;;;9.23;;
9860;SDS011;4969;52.304;4.968;2023-03-01T13:38:59;10.10;;;9.10;;
9860;SDS011;4969;52.304;4.968;2023-03-01T13:44:19;9.80;;;8.80;;
9860;SDS011;4969;52.304;4.968;2023-03-01T13:46:50;9.50;;;8.60;;
9860;SDS011;4969;52.304;4.968;2023-03-01T13:49:18;9.83;;;8.83;;
9860;SDS011;4969;52.304;4.968;2023-03-01T13:51:47;9.33;;;8.43;;
9860;SDS011;4969;52.304;4.968;2023-03-01T13:54:16;9.60;;;8.60;;
9860;SDS011;4969;52.304;4.968;2023-03-01T13:56:50;8.63;;;7.83;;
9860;SDS011;4969;52.304;4.968;2023-03-01T13:59:18;9.97;;;9.00;;
9860;SDS011;4969;52.304;4.968;2023-03-01T14:01:52;9.50;;;8.60;;
9860;SDS011;4969;52.304;4.968;2023-03-01T14:04:21;12.00;;;9.33;;
9860;SDS011;4969;52.304;4.968;2023-03-01T14:06:49;9.30;;;8.23;;
9860;SDS011;4969;52.304;4.968;2023-03-01T14:09:16;9.93;;;8.50;;
9860;SDS011;4969;52.304;4.968;2023-03-01T14:11:59;9.57;;;8.43;;
9860;SDS011;4969;52.304;4.968;2023-03-01T14:14:39;7.50;;;6.83;;
9860;SDS011;4969;52.304;4.968;2023-03-01T14:17:20;7.77;;;6.47;;
9860;SDS011;4969;52.304;4.968;2023-03-01T14:20:09;7.60;;;6.90;;
9860;SDS011;4969;52.304;4.968;2023-03-01T14:22:40;8.30;;;6.13;;
9860;SDS011;4969;52.304;4.968;2023-03-01T14:25:16;16.30;;;12.57;;
9860;SDS011;4969;52.304;4.968;2023-03-01T14:27:50;9.50;;;6.57;;
9860;SDS011;4969;52.304;4.968;2023-03-01T14:30:23;9.03;;;8.00;;
9860;SDS011;4969;52.304;4.968;2023-03-01T14:32:54;11.30;;;9.03;;
9860;SDS011;4969;52.304;4.968;2023-03-01T14:35:23;7.07;;;6.33;;
9860;SDS011;4969;52.304;4.968;2023-03-01T14:37:51;5.90;;;5.27;;
9860;SDS011;4969;52.304;4.968;2023-03-01T14:40:23;7.27;;;6.33;;
9860;SDS011;4969;52.304;4.968;2023-03-01T14:42:51;8.73;;;7.43;;
9860;SDS011;4969;52.304;4.968;2023-03-01T14:45:19;8.17;;;7.23;;
9860;SDS011;4969;52.304;4.968;2023-03-01T14:47:46;8.03;;;7.23;;
9860;SDS011;4969;52.304;4.968;2023-03-01T14:50:18;7.27;;;6.63;;
9860;SDS011;4969;52.304;4.968;2023-03-01T14:52:48;7.77;;;7.00;;
9860;SDS011;4969;52.304;4.968;2023-03-01T14:55:17;6.97;;;6.37;;
9860;SDS011;4969;52.304;4.968;2023-03-01T14:57:46;7.40;;;6.70;;
9860;SDS011;4969;52.304;4.968;2023-03-01T15:00:16;7.43;;;6.80;;
9860;SDS011;4969;52.304;4.968;2023-03-01T15:02:45;8.00;;;6.70;;
9860;SDS011;4969;52.304;4.968;2023-03-01T15:05:14;7.37;;;6.77;;
9860;SDS011;4969;52.304;4.968;2023-03-01T15:07:45;7.17;;;6.37;;
9860;SDS011;4969;52.304;4.968;2023-03-01T15:10:16;6.83;;;6.23;;
9860;SDS011;4969;52.304;4.968;2023-03-01T15:12:46;6.13;;;5.53;;
9860;SDS011;4969;52.304;4.968;2023-03-01T15:15:20;7.43;;;6.23;;
9860;SDS011;4969;52.304;4.968;2023-03-01T15:17:52;6.37;;;5.77;;